Time;durP1;ratioP1;P1;durP2;ratioP2;P2;SDS_P1;SDS_P2;PMS_P1;PMS_P2;Temp;Humidity;BMP_temperature;BMP_pressure;BME280_temperature;BME280_humidity;BME280_pressure;Samples;Min_cycle;Max_cycle;Signal;HPM_P1;HPM_P2
2022/01/24 00:01:17;;;;;;;17.75;11.75;;;;;;;3.64;100.00;102348.56;5095263;28;20111;-62
2022/01/24 00:03:42;;;;;;;21.90;13.20;;;;;;;3.19;100.00;102286.63;5093760;28;20040;-62
2022/01/24 00:06:11;;;;;;;18.13;12.18;;;;;;;3.77;100.00;102376.44;5095760;28;20028;-61
2022/01/24 00:08:36;;;;;;;17.10;12.88;;;;;;;3.74;100.00;102375.53;5095740;28;20044;-62
2022/01/24 00:11:07;;;;;;;22.20;13.60;;;;;;;3.71;100.00;102373.78;5095356;28;20111;-61
2022/01/24 00:16:29;;;;;;;21.23;13.52;;;;;;;3.68;100.00;102368.56;5094864;28;20522;-62
2022/01/24 00:26:53;;;;;;;;;;;;;;;3.64;100.00;102368.50;5095768;28;20104;-62
2022/01/24 00:29:20;;;;;;;22.00;13.32;;;;;;;3.06;100.00;102272.66;5093224;28;19908;-63
2022/01/24 00:31:46;;;;;;;19.25;12.95;;;;;;;3.59;100.00;102371.03;5093736;28;20101;-63
2022/01/24 00:34:13;;;;;;;19.65;13.27;;;;;;;3.55;100.00;102364.06;5092513;28;20020;-63
2022/01/24 00:36:39;;;;;;;17.20;12.52;;;;;;;3.56;100.00;102366.69;5094720;28;20478;-63
2022/01/24 00:39:05;;;;;;;16.77;12.05;;;;;;;3.55;100.00;102374.44;5094536;28;20028;-63
2022/01/24 00:41:37;;;;;;;18.10;12.18;;;;;;;3.55;100.00;102371.84;5094624;28;20027;-62
2022/01/24 00:46:50;;;;;;;15.73;11.63;;;;;;;3.55;100.00;102374.44;5094388;28;20074;-62
2022/01/24 00:54:43;;;;;;;17.93;12.03;;;;;;;3.42;100.00;102372.59;5094285;28;20081;-62
2022/01/24 00:57:09;;;;;;;17.85;11.32;;;;;;;3.38;100.00;102374.28;5094285;28;20474;-63
2022/01/24 00:59:34;;;;;;;17.85;12.02;;;;;;;3.35;100.00;102373.38;5093087;28;20027;-63
2022/01/24 01:02:00;;;;;;;18.25;12.68;;;;;;;3.33;100.00;102369.91;5094300;28;20036;-64
2022/01/24 01:04:33;;;;;;;20.60;12.18;;;;;;;3.27;100.00;102359.44;5093903;28;20039;-63
2022/01/24 01:07:04;;;;;;;17.58;11.73;;;;;;;3.31;100.00;102369.03;5094632;28;20043;-63
2022/01/24 01:20:29;;;;;;;21.83;12.52;;;;;;;3.25;100.00;102368.91;5093914;28;20448;-61
2022/01/24 01:22:54;;;;;;;19.98;11.77;;;;;;;3.22;100.00;102361.09;5093435;28;20056;-62
2022/01/24 01:25:20;;;;;;;17.30;11.98;;;;;;;3.16;100.00;102348.06;5092862;28;20063;-62
2022/01/24 01:27:47;;;;;;;16.50;11.32;;;;;;;3.18;100.00;102362.78;5093632;28;20028;-62
2022/01/24 01:30:18;;;;;;;19.20;12.70;;;;;;;3.14;100.00;102357.56;5091908;28;20831;-62
2022/01/24 01:32:55;;;;;;;16.30;11.05;;;;;;;3.10;100.00;102356.66;5093918;28;20105;-62
2022/01/24 01:35:43;;;;;;;18.17;12.80;;;;;;;3.06;100.00;102357.47;5093375;28;20031;-62
2022/01/24 01:56:48;;;;;;;20.77;12.88;;;;;;;2.87;100.00;102345.97;5093379;28;20478;-61
2022/01/24 01:59:14;;;;;;;17.92;12.02;;;;;;;2.86;100.00;102348.56;5093649;28;20047;-61
2022/01/24 02:01:39;;;;;;;19.17;12.43;;;;;;;2.81;100.00;102345.91;5093518;28;20119;-61
2022/01/24 02:04:05;;;;;;;18.77;12.02;;;;;;;2.82;100.00;102347.66;5092880;28;20024;-61
2022/01/24 02:06:31;;;;;;;18.40;12.02;;;;;;;2.80;100.00;102345.88;5092799;28;20050;-62
2022/01/24 02:09:05;;;;;;;19.85;13.73;;;;;;;2.78;100.00;102345.84;5093095;28;20062;-62
2022/01/24 02:11:31;;;;;;;19.65;12.43;;;;;;;2.77;100.00;102344.09;5093055;28;20501;-61
2022/01/24 02:14:00;;;;;;;21.02;13.35;;;;;;;2.61;100.00;102320.53;5092821;28;20032;-62
2022/01/24 02:22:42;;;;;;;21.85;14.00;;;;;;;2.84;100.00;102345.09;5086713;28;20044;-62
2022/01/24 02:24:51;;;;;;;18.33;14.00;;;;;;;2.87;100.00;102350.31;5087467;28;20036;-62
2022/01/24 02:27:18;;;;;;;21.70;14.82;;;;;;;2.88;100.00;102352.03;5091815;28;20373;-61
2022/01/24 02:32:12;;;;;;;21.15;14.30;;;;;;;2.93;100.00;102361.66;5093173;28;20032;-62
2022/01/24 02:34:43;;;;;;;22.63;14.00;;;;;;;2.92;100.00;102359.88;5090009;28;20043;-62
2022/01/24 02:37:19;;;;;;;16.60;11.65;;;;;;;2.94;100.00;102346.94;5092303;28;20028;-62
2022/01/24 02:39:56;;;;;;;18.98;12.18;;;;;;;2.98;100.00;102353.88;5092664;28;20055;-62
2022/01/24 02:53:27;;;;;;;21.45;13.15;;;;;;;2.90;100.00;102348.63;5092474;28;20089;-62
2022/01/24 02:55:52;;;;;;;18.05;11.98;;;;;;;2.87;100.00;102345.97;5092859;28;20112;-61
2022/01/24 02:58:17;;;;;;;19.67;13.15;;;;;;;2.86;100.00;102349.44;5092018;28;20649;-61
2022/01/24 03:00:45;;;;;;;17.58;12.57;;;;;;;2.86;100.00;102344.25;5092414;28;20028;-62
2022/01/24 03:03:11;;;;;;;18.30;13.20;;;;;;;2.52;100.00;102291.03;5092029;28;20042;-63
2022/01/24 03:05:37;;;;;;;20.13;12.77;;;;;;;2.84;100.00;102340.75;5091595;28;20106;-62
2022/01/24 03:08:03;;;;;;;16.90;12.40;;;;;;;2.85;100.00;102337.31;5083563;28;20492;-62
2022/01/24 03:10:36;;;;;;;21.60;13.48;;;;;;;2.88;100.00;102336.47;5091550;28;20028;-62
2022/01/24 03:13:20;;;;;;;22.95;12.88;;;;;;;2.35;100.00;102252.75;5092482;28;20032;-63
2022/01/24 03:15:47;;;;;;;20.40;12.70;;;;;;;2.88;100.00;102332.16;5092451;28;20024;-62
2022/01/24 03:18:13;;;;;;;14.48;11.63;;;;;;;2.88;100.00;102339.06;5089833;28;20024;-62
2022/01/24 03:20:39;;;;;;;19.75;12.05;;;;;;;2.86;100.00;102336.47;5070356;28;20024;-62
2022/01/24 03:23:05;;;;;;;17.25;11.68;;;;;;;2.46;100.00;102264.16;5071308;28;20094;-61
2022/01/24 03:25:31;;;;;;;19.33;11.45;;;;;;;2.77;100.00;102318.16;5071877;28;20390;-62
2022/01/24 03:27:56;;;;;;;21.13;13.68;;;;;;;2.86;100.00;102331.25;5071562;28;20059;-62
2022/01/24 03:30:22;;;;;;;20.80;12.98;;;;;;;2.86;100.00;102322.59;5071907;28;20032;-62
2022/01/24 03:32:48;;;;;;;19.70;11.35;;;;;;;2.84;100.00;102325.16;5070063;28;20463;-62
2022/01/24 03:35:13;;;;;;;18.85;12.50;;;;;;;2.85;100.00;102326.91;5071995;28;20082;-62
2022/01/24 03:37:39;;;;;;;23.45;13.25;;;;;;;2.85;100.00;102323.44;5072310;28;20103;-62
2022/01/24 03:40:05;;;;;;;20.33;13.02;;;;;;;2.84;100.00;102321.72;5066504;28;20082;-62
2022/01/24 03:42:31;;;;;;;18.38;12.48;;;;;;;2.84;100.00;102319.97;5071022;28;20092;-63
2022/01/24 03:45:00;;;;;;;17.38;12.23;;;;;;;2.82;100.00;102316.50;5074908;28;20058;-62
2022/01/24 03:50:04;;;;;;;17.05;11.60;;;;;;;2.81;100.00;102303.50;5074929;28;20040;-62
2022/01/24 03:52:30;;;;;;;20.58;14.02;;;;;;;2.79;100.00;102305.22;5074044;28;20119;-62
2022/01/24 03:54:56;;;;;;;18.25;12.63;;;;;;;2.76;100.00;102311.25;5074960;28;20095;-63
2022/01/24 03:57:22;;;;;;;22.00;14.13;;;;;;;2.78;100.00;102309.53;5075158;28;20025;-62
2022/01/24 03:59:48;;;;;;;24.33;14.15;;;;;;;2.76;100.00;102311.25;5073953;28;20078;-63
2022/01/24 04:02:14;;;;;;;25.33;14.50;;;;;;;2.73;100.00;102308.59;5075522;28;20059;-62
2022/01/24 04:04:40;;;;;;;22.38;12.60;;;;;;;2.76;100.00;102311.25;5074467;28;20433;-62
2022/01/24 04:07:06;;;;;;;19.42;13.70;;;;;;;2.81;100.00;102319.06;5074582;28;20085;-62
2022/01/24 04:09:33;;;;;;;19.85;13.25;;;;;;;2.82;100.00;102321.69;5074339;28;20516;-62
2022/01/24 04:11:59;;;;;;;22.48;14.25;;;;;;;2.84;100.00;102322.56;5074798;28;20028;-62
2022/01/24 04:17:07;;;;;;;24.35;15.10;;;;;;;2.91;100.00;102326.97;5075016;28;20040;-62
2022/01/24 04:22:24;;;;;;;18.40;13.68;;;;;;;2.89;100.00;102313.13;5074485;28;20040;-63
2022/01/24 04:24:58;;;;;;;23.70;15.25;;;;;;;2.86;100.00;102323.47;5074576;28;20551;-62
2022/01/24 04:27:23;;;;;;;19.42;13.55;;;;;;;2.89;100.00;102323.50;5070706;28;20028;-62
2022/01/24 04:29:48;;;;;;;20.88;12.35;;;;;;;2.92;100.00;102322.66;5051552;28;20106;-62
2022/01/24 04:32:14;;;;;;;19.50;13.80;;;;;;;2.90;100.00;102322.66;5074743;28;20031;-62
2022/01/24 04:34:39;;;;;;;24.75;14.35;;;;;;;2.91;100.00;102316.59;5074710;28;20053;-62
2022/01/24 04:37:05;;;;;;;20.33;14.07;;;;;;;2.92;100.00;102318.34;5074555;28;20082;-62
2022/01/24 04:39:30;;;;;;;23.50;13.85;;;;;;;2.91;100.00;102321.78;5072793;28;20032;-62
2022/01/24 04:41:57;;;;;;;23.75;15.85;;;;;;;2.92;100.00;102318.34;5073578;28;20034;-62
2022/01/24 04:47:34;;;;;;;20.05;14.52;;;;;;;2.88;100.00;102326.94;5074646;28;20395;-62
2022/01/24 04:55:13;;;;;;;20.02;15.18;;;;;;;2.85;100.00;102326.91;5074222;28;20036;-62
2022/01/24 04:57:38;;;;;;;25.25;16.33;;;;;;;2.86;100.00;102326.06;5073777;28;20029;-63
2022/01/24 05:00:08;;;;;;;24.48;15.00;;;;;;;2.85;100.00;102333.81;5073663;28;20024;-62
2022/01/24 05:02:33;;;;;;;24.35;13.88;;;;;;;2.44;100.00;102269.31;5070921;28;20031;-62
2022/01/24 05:04:59;;;;;;;17.73;13.30;;;;;;;2.79;100.00;102326.84;5073641;28;20024;-63
2022/01/24 05:07:25;;;;;;;27.55;14.50;;;;;;;2.79;100.00;102332.03;5073754;28;20031;-62
2022/01/24 05:25:54;;;;;;;19.52;13.57;;;;;;;2.75;100.00;102345.81;5073392;28;20097;-62
2022/01/24 05:28:20;;;;;;;22.05;15.75;;;;;;;2.77;100.00;102340.66;5073048;28;20032;-62
2022/01/24 05:30:46;;;;;;;23.73;14.80;;;;;;;2.76;100.00;102337.19;5073357;28;20039;-63
2022/01/24 05:33:12;;;;;;;26.75;17.38;;;;;;;2.75;100.00;102332.84;5072980;28;20089;-62
2022/01/24 05:35:37;;;;;;;30.05;17.05;;;;;;;2.77;100.00;102335.47;5073399;28;20507;-62
2022/01/24 05:38:04;;;;;;;31.92;16.23;;;;;;;2.79;100.00;102337.22;5072914;28;20028;-63
2022/01/24 05:40:29;;;;;;;18.75;13.68;;;;;;;2.79;100.00;102341.53;5071487;28;20429;-63
2022/01/24 05:42:55;;;;;;;20.15;14.07;;;;;;;2.78;100.00;102332.88;5072790;28;20082;-62
2022/01/24 05:45:20;;;;;;;26.95;15.80;;;;;;;2.84;100.00;102335.53;5072265;28;20115;-63
2022/01/24 05:47:46;;;;;;;23.13;15.25;;;;;;;2.83;100.00;102333.81;5070889;28;20445;-62
2022/01/24 05:50:11;;;;;;;27.77;14.93;;;;;;;2.85;100.00;102341.63;5072578;28;20036;-61
2022/01/24 05:52:36;;;;;;;21.20;14.88;;;;;;;2.52;100.00;102290.16;5072046;28;20036;-62
2022/01/24 05:55:03;;;;;;;21.48;14.15;;;;;;;2.81;100.00;102343.28;5071948;28;20020;-62
2022/01/24 05:57:29;;;;;;;21.08;14.82;;;;;;;2.81;100.00;102345.91;5071203;28;20064;-62
2022/01/24 05:59:54;;;;;;;22.08;14.10;;;;;;;2.80;100.00;102344.16;5070590;28;20039;-62
2022/01/24 06:02:20;;;;;;;26.63;14.98;;;;;;;2.78;100.00;102345.84;5070794;28;20078;-62
2022/01/24 06:04:45;;;;;;;21.90;13.73;;;;;;;2.79;100.00;102345.00;5069036;28;20066;-62
2022/01/24 06:07:11;;;;;;;19.77;13.93;;;;;;;2.77;100.00;102341.50;5071424;28;20048;-63
2022/01/24 06:09:36;;;;;;;22.35;14.80;;;;;;;2.76;100.00;102342.38;5071884;28;20032;-62
2022/01/24 06:12:02;;;;;;;24.85;14.35;;;;;;;2.39;100.00;102277.88;5072288;28;20028;-62
2022/01/24 06:14:27;;;;;;;20.10;14.27;;;;;;;2.74;100.00;102344.06;5072089;28;20060;-62
2022/01/24 06:16:53;;;;;;;20.50;15.02;;;;;;;2.73;100.00;102342.34;5072094;28;20032;-62
2022/01/24 06:19:19;;;;;;;22.08;15.02;;;;;;;2.54;100.00;102315.25;5071980;28;20394;-62
2022/01/24 06:21:45;;;;;;;21.92;13.95;;;;;;;2.68;100.00;102348.31;5071416;28;20033;-62
2022/01/24 06:24:11;;;;;;;24.05;15.18;;;;;;;2.67;100.00;102357.81;5069084;28;20032;-62
2022/01/24 06:26:37;;;;;;;17.70;13.10;;;;;;;2.65;100.00;102349.16;5072106;28;20087;-62
2022/01/24 06:29:03;;;;;;;21.50;14.95;;;;;;;2.63;100.00;102348.25;5071605;28;20032;-62
2022/01/24 06:31:28;;;;;;;26.63;14.40;;;;;;;2.64;100.00;102347.38;5067312;28;20094;-62
2022/01/24 06:33:54;;;;;;;20.17;13.10;;;;;;;2.15;100.00;102267.16;5065458;28;20029;-61
2022/01/24 06:36:19;;;;;;;17.60;13.63;;;;;;;2.60;100.00;102348.22;5065672;28;20036;-62
2022/01/24 06:38:45;;;;;;;21.33;15.02;;;;;;;2.58;100.00;102347.31;5067838;28;20044;-62
2022/01/24 06:41:10;;;;;;;18.75;12.27;;;;;;;2.56;100.00;102349.03;5070065;28;20077;-62
2022/01/24 06:43:36;;;;;;;18.38;12.75;;;;;;;2.55;100.00;102340.38;5068569;28;20077;-62
2022/01/24 06:46:01;;;;;;;21.98;13.50;;;;;;;2.55;100.00;102347.28;5070606;28;20052;-63
2022/01/24 06:48:28;;;;;;;21.30;14.20;;;;;;;2.14;100.00;102271.47;5070031;28;20046;-62
2022/01/24 06:50:53;;;;;;;19.85;13.95;;;;;;;2.52;100.00;102342.94;5071747;28;20039;-62
2022/01/24 06:53:20;;;;;;;23.00;14.60;;;;;;;2.45;100.00;102329.84;5071126;28;20032;-62
2022/01/24 06:55:45;;;;;;;24.45;14.50;;;;;;;2.52;100.00;102342.94;5069767;28;20033;-62
2022/01/24 06:58:10;;;;;;;23.00;15.45;;;;;;;2.52;100.00;102342.94;5070701;28;20605;-62
2022/01/24 07:00:36;;;;;;;21.85;14.77;;;;;;;2.04;100.00;102259.22;5070579;28;20032;-62
2022/01/24 07:03:02;;;;;;;19.95;14.25;;;;;;;2.51;100.00;102337.69;5070949;28;20045;-62
2022/01/24 07:05:29;;;;;;;19.40;15.07;;;;;;;2.52;100.00;102339.44;5070661;28;20045;-62
2022/01/24 07:07:56;;;;;;;22.65;14.77;;;;;;;2.53;100.00;102338.63;5070939;28;20036;-62
2022/01/24 07:10:23;;;;;;;22.23;14.18;;;;;;;2.53;100.00;102346.41;5071697;28;20028;-63
2022/01/24 07:12:50;;;;;;;23.35;13.77;;;;;;;2.52;100.00;102339.44;5072999;28;20078;-62
2022/01/24 07:15:17;;;;;;;17.80;13.13;;;;;;;2.52;100.00;102363.69;5075609;28;20024;-62
2022/01/24 07:20:11;;;;;;;21.65;13.98;;;;;;;2.52;100.00;102360.22;5075405;28;20064;-62
2022/01/24 07:22:37;;;;;;;19.17;13.27;;;;;;;2.52;100.00;102362.81;5074436;28;20036;-62
2022/01/24 07:25:02;;;;;;;26.13;14.80;;;;;;;2.51;100.00;102372.31;5074860;28;20020;-62
2022/01/24 07:27:28;;;;;;;23.25;14.75;;;;;;;2.52;100.00;102362.81;5075006;28;20055;-62
2022/01/24 07:29:53;;;;;;;19.52;14.38;;;;;;;2.52;100.00;102358.50;5075039;28;20039;-62
2022/01/24 07:32:18;;;;;;;20.75;14.20;;;;;;;2.52;100.00;102357.63;5075622;28;20474;-62
2022/01/24 07:34:44;;;;;;;21.75;13.50;;;;;;;2.51;100.00;102361.03;5075036;28;20036;-62
2022/01/24 07:37:09;;;;;;;23.55;16.38;;;;;;;2.49;100.00;102366.22;5073818;28;20056;-62
2022/01/24 07:39:35;;;;;;;22.40;14.32;;;;;;;2.46;100.00;102357.53;5073918;28;20028;-62
2022/01/24 07:42:13;;;;;;;21.52;14.82;;;;;;;2.48;100.00;102366.19;5074412;28;20111;-62
2022/01/24 07:44:38;;;;;;;21.48;14.80;;;;;;;2.50;100.00;102374.88;5072534;28;20072;-62
2022/01/24 07:47:04;;;;;;;25.02;15.82;;;;;;;2.49;100.00;102361.03;5070933;28;20067;-62
2022/01/24 07:49:31;;;;;;;26.17;15.02;;;;;;;2.49;100.00;102357.56;5071810;28;20474;-63
2022/01/24 07:51:57;;;;;;;22.77;15.30;;;;;;;2.49;100.00;102360.16;5070902;28;20444;-63
2022/01/24 07:54:22;;;;;;;22.48;15.30;;;;;;;2.51;100.00;102358.47;5072035;28;20021;-62
2022/01/24 07:56:47;;;;;;;22.02;15.25;;;;;;;2.49;100.00;102349.78;5071564;28;20470;-62
2022/01/24 07:59:14;;;;;;;23.35;16.80;;;;;;;2.52;100.00;102357.63;5073923;28;20074;-62
2022/01/24 08:01:41;;;;;;;21.23;15.68;;;;;;;2.54;100.00;102354.19;5073528;28;20035;-62
2022/01/24 08:04:07;;;;;;;22.23;15.00;;;;;;;2.49;100.00;102331.63;5073609;28;20131;-62
2022/01/24 08:06:33;;;;;;;24.73;15.43;;;;;;;2.58;100.00;102348.19;5073423;28;20111;-62
2022/01/24 08:08:58;;;;;;;24.77;15.10;;;;;;;2.64;100.00;102352.59;5090105;28;20390;-62
2022/01/24 08:11:24;;;;;;;26.60;15.55;;;;;;;2.63;100.00;102344.78;5074380;28;20024;-62
2022/01/24 08:13:51;;;;;;;26.35;16.48;;;;;;;2.77;100.00;102353.63;5071242;28;20040;-62
2022/01/24 08:16:16;;;;;;;22.98;15.55;;;;;;;2.82;100.00;102351.97;5072195;28;20024;-61
2022/01/24 08:18:42;;;;;;;25.73;16.98;;;;;;;2.88;100.00;102354.63;5074075;28;20031;-63
2022/01/24 08:21:07;;;;;;;25.65;16.38;;;;;;;2.89;100.00;102356.38;5074686;28;20090;-61
2022/01/24 08:23:33;;;;;;;21.67;16.90;;;;;;;2.95;100.00;102370.31;5074324;28;20025;-61
2022/01/24 08:25:58;;;;;;;23.20;16.15;;;;;;;3.02;100.00;102361.75;5072749;28;20032;-61
2022/01/24 08:28:23;;;;;;;27.35;16.77;;;;;;;3.08;100.00;102368.72;5074583;28;20040;-61
2022/01/24 08:30:49;;;;;;;21.45;15.50;;;;;;;3.14;100.00;102374.03;5074161;28;20028;-62
2022/01/24 08:33:14;;;;;;;21.55;15.35;;;;;;;3.19;100.00;102371.47;5074338;28;20112;-61
2022/01/24 08:35:39;;;;;;;22.73;15.60;;;;;;;3.25;100.00;102374.13;5074058;28;20028;-63
2022/01/24 08:38:05;;;;;;;21.20;15.98;;;;;;;3.33;100.00;102385.47;5074251;28;20032;-61
2022/01/24 08:40:33;;;;;;;26.90;15.20;;;;;;;3.34;100.00;102388.13;5073484;28;20071;-62
2022/01/24 08:43:04;;;;;;;21.52;14.85;;;;;;;3.31;100.00;102389.81;5072837;28;20043;-62
2022/01/24 08:48:17;;;;;;;23.50;14.63;;;;;;;3.38;100.00;102386.41;5074580;28;20036;-61
2022/01/24 08:50:43;;;;;;;19.85;14.27;;;;;;;3.27;100.00;102365.50;5068932;28;20757;-61
2022/01/24 08:53:10;;;;;;;21.83;14.35;;;;;;;3.41;100.00;102389.06;5073417;28;20101;-61
2022/01/24 08:55:36;;;;;;;22.10;13.50;;;;;;;3.40;100.00;102384.69;5073846;28;20051;-63
2022/01/24 08:58:04;;;;;;;20.65;13.25;;;;;;;3.40;100.00;102384.69;5074976;28;20115;-64
2022/01/24 09:00:30;;;;;;;16.95;12.18;;;;;;;3.42;100.00;102385.56;5073666;28;20063;-63
2022/01/24 09:02:56;;;;;;;17.95;12.73;;;;;;;3.39;100.00;102388.13;5073550;28;20446;-61
2022/01/24 09:05:23;;;;;;;18.08;11.82;;;;;;;3.31;100.00;102380.25;5072942;28;20029;-61
2022/01/24 09:07:49;;;;;;;18.52;12.90;;;;;;;3.27;100.00;102388.00;5067772;28;20032;-62
2022/01/24 09:10:16;;;;;;;20.15;12.38;;;;;;;3.19;100.00;102380.13;5073285;28;20024;-62
2022/01/24 09:12:41;;;;;;;17.73;12.85;;;;;;;3.15;100.00;102391.31;5072956;28;20475;-62
2022/01/24 09:15:07;;;;;;;17.95;12.15;;;;;;;3.14;100.00;102380.94;5072826;28;20039;-62
2022/01/24 09:17:32;;;;;;;18.50;13.07;;;;;;;3.10;100.00;102385.22;5072513;28;20463;-62
2022/01/24 09:19:59;;;;;;;18.30;12.68;;;;;;;3.13;100.00;102380.06;5072884;28;20058;-62
2022/01/24 09:22:25;;;;;;;15.95;11.57;;;;;;;3.17;100.00;102378.38;5066040;28;20032;-63
2022/01/24 09:24:50;;;;;;;17.40;12.38;;;;;;;3.21;100.00;102386.19;5067075;28;20115;-62
2022/01/24 09:27:16;;;;;;;16.67;12.52;;;;;;;3.24;100.00;102377.59;5072030;28;20115;-62
2022/01/24 09:29:41;;;;;;;27.27;13.45;;;;;;;3.16;100.00;102358.44;5072340;28;20425;-62
2022/01/24 09:32:07;;;;;;;15.80;12.35;;;;;;;3.11;100.00;102340.19;5067244;28;20441;-62
2022/01/24 09:34:33;;;;;;;18.13;13.00;;;;;;;3.43;100.00;102383.00;5071968;28;20020;-62
2022/01/24 09:36:59;;;;;;;21.20;12.85;;;;;;;3.44;100.00;102382.16;5072053;28;20045;-63
2022/01/24 09:39:25;;;;;;;20.08;11.50;;;;;;;3.39;100.00;102385.53;5072640;28;20479;-63
2022/01/24 09:41:51;;;;;;;18.75;13.07;;;;;;;3.38;100.00;102382.06;5072782;28;20040;-62
2022/01/24 09:44:16;;;;;;;17.38;11.85;;;;;;;3.37;100.00;102385.53;5067229;28;20104;-62
2022/01/24 09:46:43;;;;;;;16.35;11.80;;;;;;;3.37;100.00;102385.53;5072629;28;20029;-62
2022/01/24 09:49:10;;;;;;;19.83;12.13;;;;;;;3.33;100.00;102383.75;5087588;28;20040;-62
2022/01/24 09:51:37;;;;;;;20.27;12.35;;;;;;;3.30;100.00;102382.84;5071193;28;20036;-62
2022/01/24 09:54:04;;;;;;;21.38;14.35;;;;;;;3.24;100.00;102381.06;5071372;28;20033;-63
2022/01/24 09:56:29;;;;;;;19.40;13.45;;;;;;;3.23;100.00;102388.81;5070912;28;20024;-62
2022/01/24 09:58:55;;;;;;;20.83;13.65;;;;;;;3.21;100.00;102378.41;5069864;28;20025;-63
2022/01/24 10:01:21;;;;;;;17.83;12.88;;;;;;;3.22;100.00;102387.06;5071982;28;20033;-62
2022/01/24 10:04:09;;;;;;;22.98;13.88;;;;;;;3.27;100.00;102382.81;5086806;28;20097;-62
2022/01/24 10:07:04;;;;;;;17.55;13.30;;;;;;;3.37;100.00;102382.94;5069107;28;20103;-63
2022/01/24 10:09:31;;;;;;;;;;;;;;;3.44;100.00;102378.69;5071556;28;20039;-63
2022/01/24 10:12:04;;;;;;;24.48;13.82;;;;;;;3.47;100.00;102371.78;5071940;28;19916;-63
2022/01/24 10:17:26;;;;;;;20.35;13.27;;;;;;;3.51;100.00;102370.97;5072240;28;20071;-63
2022/01/24 10:19:52;;;;;;;20.80;13.43;;;;;;;3.55;100.00;102369.25;5071353;28;20482;-62
2022/01/24 10:22:21;;;;;;;22.92;14.30;;;;;;;3.58;100.00;102364.13;5071796;28;20051;-63
2022/01/24 10:24:49;;;;;;;19.20;14.23;;;;;;;3.61;100.00;102374.53;5066987;28;20115;-62
2022/01/24 10:27:17;;;;;;;19.30;13.82;;;;;;;3.21;100.00;102302.25;5050412;28;20631;-62
2022/01/24 10:29:45;;;;;;;22.20;14.90;;;;;;;3.71;100.00;102376.38;5046223;28;20039;-62
2022/01/24 10:32:28;;;;;;;25.38;14.60;;;;;;;3.81;100.00;102377.31;5091512;28;20040;-62
2022/01/24 10:34:54;;;;;;;24.33;14.80;;;;;;;3.84;100.00;102373.03;5090422;28;20482;-62
2022/01/24 10:37:23;;;;;;;22.35;15.23;;;;;;;3.93;100.00;102383.50;5090951;28;20031;-62
2022/01/24 10:39:57;;;;;;;19.65;14.10;;;;;;;3.98;100.00;102375.75;5074074;28;20067;-62
2022/01/24 10:44:53;;;;;;;20.83;15.15;;;;;;;4.05;100.00;102378.44;5068026;28;20565;-62
2022/01/24 10:47:29;;;;;;;22.30;13.98;;;;;;;4.15;100.00;102373.28;5057870;28;20032;-62
2022/01/24 10:49:55;;;;;;;20.58;14.50;;;;;;;4.17;100.00;102358.56;5076860;28;20055;-62
2022/01/24 10:52:23;;;;;;;27.10;14.57;;;;;;;4.23;100.00;102362.06;5069153;28;20035;-63
2022/01/24 10:54:51;;;;;;;23.45;14.68;;;;;;;4.27;100.00;102362.97;5069352;28;20051;-62
2022/01/24 10:57:22;;;;;;;26.85;13.85;;;;;;;4.34;100.00;102362.16;5074461;28;20036;-62
2022/01/24 10:59:48;;;;;;;21.13;14.15;;;;;;;4.39;100.00;102361.34;5067860;28;20563;-62
2022/01/24 11:02:15;;;;;;;21.95;14.32;;;;;;;4.27;100.00;102335.22;5068631;28;20032;-62
2022/01/24 11:04:41;;;;;;;24.35;14.93;;;;;;;4.43;100.00;102357.00;5068585;28;20587;-62
2022/01/24 11:07:06;;;;;;;21.70;14.60;;;;;;;4.50;100.00;102354.44;5068942;28;20037;-62
2022/01/24 11:09:34;;;;;;;21.73;14.73;;;;;;;4.58;100.00;102350.16;5069616;28;20032;-61
2022/01/24 11:12:11;;;;;;;21.23;14.23;;;;;;;4.62;100.00;102336.31;5082767;28;20032;-62
2022/01/24 11:14:38;;;;;;;20.10;14.20;;;;;;;4.73;100.00;102338.09;5089756;28;20082;-63
2022/01/24 11:17:05;;;;;;;22.70;13.00;;;;;;;4.51;100.00;102287.66;5088322;28;20412;-62
2022/01/24 11:19:37;;;;;;;19.58;14.10;;;;;;;4.91;100.00;102339.03;5067350;28;20021;-63
2022/01/24 11:22:05;;;;;;;21.00;14.70;;;;;;;4.98;100.00;102333.00;5069903;28;20063;-63
2022/01/24 11:24:46;;;;;;;22.52;15.00;;;;;;;5.00;100.00;102326.03;5070162;28;20440;-63
2022/01/24 11:27:11;;;;;;;20.55;13.77;;;;;;;5.03;100.00;102326.09;5063498;28;20036;-63
2022/01/24 11:29:37;;;;;;;22.77;14.65;;;;;;;5.03;100.00;102327.81;5054377;28;20070;-63
2022/01/24 11:32:18;;;;;;;21.63;14.52;;;;;;;5.06;100.00;102327.81;5065703;28;20449;-63
2022/01/24 11:34:50;;;;;;;22.08;13.70;;;;;;;5.05;100.00;102319.13;5070065;28;20124;-63
2022/01/24 11:37:41;;;;;;;17.05;13.30;;;;;;;5.06;100.00;102313.06;5069758;28;20044;-63
2022/01/24 11:40:19;;;;;;;18.13;14.05;;;;;;;5.10;100.00;102319.16;5070199;28;20051;-63
2022/01/24 11:42:47;;;;;;;18.42;12.77;;;;;;;5.14;100.00;102310.47;5070490;28;20067;-63
2022/01/24 11:45:16;;;;;;;20.92;13.20;;;;;;;5.22;100.00;102313.97;5070096;28;20021;-63
2022/01/24 11:47:43;;;;;;;21.90;15.00;;;;;;;5.33;100.00;102321.81;5070581;28;20024;-61
2022/01/24 11:50:24;;;;;;;21.23;14.50;;;;;;;5.45;100.00;102317.50;5069431;28;20379;-63
2022/01/24 11:52:51;;;;;;;19.83;13.52;;;;;;;5.15;100.00;102255.75;5066969;28;20044;-62
2022/01/24 11:55:30;;;;;;;15.48;12.70;;;;;;;5.58;100.00;102313.16;5062503;28;20028;-62
2022/01/24 11:58:06;;;;;;;22.13;14.77;;;;;;;5.76;100.00;102313.19;5061798;28;20037;-62
2022/01/24 12:00:38;;;;;;;18.70;14.52;;;;;;;6.39;100.00;102309.66;5067125;28;20140;-62
2022/01/24 12:03:23;;;;;;;22.33;14.02;;;;;;;6.89;100.00;102306.91;5070703;28;20143;-63
2022/01/24 12:05:53;;;;;;;17.23;13.43;;;;;;;6.98;100.00;102303.38;5071048;28;20044;-61
2022/01/24 12:08:38;;;;;;;23.15;14.93;;;;;;;6.86;100.00;102299.03;5069014;28;20359;-61
2022/01/24 12:11:12;;;;;;;19.15;14.98;;;;;;;6.77;100.00;102296.47;5072125;28;20052;-62
2022/01/24 12:13:49;;;;;;;22.85;15.05;;;;;;;6.63;100.00;102291.31;5067556;28;20045;-62
2022/01/24 12:16:16;;;;;;;22.77;15.77;;;;;;;6.58;100.00;102294.81;5074110;28;20029;-61
2022/01/24 12:18:42;;;;;;;23.70;16.63;;;;;;;6.51;100.00;102290.50;5067351;28;20028;-62
2022/01/24 12:21:09;;;;;;;23.10;17.20;;;;;;;6.52;100.00;102292.25;5085027;28;20086;-62
2022/01/24 12:23:38;;;;;;;24.73;18.08;;;;;;;6.21;100.00;102209.66;5082214;28;20036;-62
2022/01/24 12:26:09;;;;;;;24.58;17.30;;;;;;;6.94;100.00;102265.94;5066710;28;20036;-62
2022/01/24 12:28:47;;;;;;;25.02;17.17;;;;;;;7.55;100.00;102289.94;5065235;28;20036;-62
2022/01/24 12:31:20;;;;;;;26.73;18.02;;;;;;;7.96;100.00;102279.13;5067136;28;20059;-62
2022/01/24 12:33:55;;;;;;;24.90;15.43;;;;;;;8.43;100.00;102269.94;5073065;28;20040;-62
2022/01/24 12:36:50;;;;;;;19.15;14.25;;;;;;;9.43;100.00;102268.63;5072374;28;20032;-62
2022/01/24 12:39:22;;;;;;;;;;;;;;;10.71;100.00;102263.66;5066901;28;20036;-62
2022/01/24 12:41:58;;;;;;;21.70;15.07;;;;;;;11.51;100.00;102262.75;5081351;28;19928;-62
2022/01/24 12:47:21;;;;;;;23.83;14.82;;;;;;;12.21;97.77;102270.63;5088388;28;20048;-62
2022/01/24 12:49:47;;;;;;;24.67;16.65;;;;;;;12.02;93.25;102264.13;5090141;28;20410;-62
2022/01/24 12:52:15;;;;;;;24.88;16.77;;;;;;;10.80;97.60;102269.63;5089935;28;20024;-63
2022/01/24 12:54:43;;;;;;;18.45;14.60;;;;;;;9.69;100.00;102266.44;5090457;28;20028;-63
2022/01/24 12:57:11;;;;;;;23.67;16.48;;;;;;;8.70;100.00;102262.63;5089334;28;20028;-63
2022/01/24 12:59:38;;;;;;;24.77;16.48;;;;;;;8.11;100.00;102260.66;5085913;28;20389;-62
2022/01/24 13:02:05;;;;;;;20.30;17.33;;;;;;;7.53;100.00;102241.16;5081495;28;20032;-62
2022/01/24 13:04:37;;;;;;;24.95;16.42;;;;;;;7.34;100.00;102249.97;5085337;28;20041;-62
2022/01/24 13:07:03;;;;;;;22.10;18.60;;;;;;;7.25;100.00;102258.78;5086159;28;20028;-62